Terminal Aerodrome Forecast
Issued by NWS Melbourne, FL

Home | Current Version | Previous Version | Text Only | Print | Product List | Glossary On
Versions: 1 2 3 4 5 6 7 8 9 10 11 12 13 14 15 16 17
376
FTUS42 KMLB 271740
TAFMLB
TAF
KMLB 271740Z 2718/2818 13019G28KT P6SM VCSH BKN025 BKN060 BKN090
      TEMPO 2720/2723 3SM TSRA BKN020CB
     FM272300 15011KT P6SM VCSH SCT025 BKN060
     FM280400 17008KT P6SM BKN030 BKN120
     FM281400 17015G22KT P6SM VCSH SCT015 SCT025 BKN035=

USA.gov is the U.S. government's official web portal to all federal, state and local government web resources and services.